Airfield :
LOGIN :

Register | Disclaimer

   EN    FR    IT 

 










Legend :    VFR   Marginal VFR   IFR   Intensive IFR   Very Intensive IFR
Visi :
Ceiling :
>= 8 km
>= 3000ft
5 to 8 km
1000 to 3000 ft
1500m to 5 km
500 to 1000 ft
800 to 1500m
200 to 500 ft
< 800m
< 200 ft
Symbols :   Thunderstorms  Fog  Heavy snow  Heavy precipitations  Wind > 20 kt
SIGMETs :     Misc.  Thunderstorms  Icing  Turbulence  Mountain Waves  Volcanic Ashes







- Airport Elevation : 36 ft
- IATA code : RIX


EVRA - Riga

CURRENT METAR :
  • 220650Z 20011KT 9999 OVC011 10/09 Q1015 R18/190095 NOSIG

EXPIRED METARs :
  • 220620Z 20010KT 9999 OVC011 10/09 Q1015 R18/190095 TEMPO BKN008 OVC011
  • 220550Z 21010KT 9999 OVC012 10/08 Q1015 R18/190095 TEMPO OVC008
  • 220520Z 20012KT 9999 OVC013 09/08 Q1015 R18/190095 NOSIG
  • 220450Z 21012KT 9999 OVC012 09/08 Q1016 R18/190095 NOSIG
  • 220420Z 21011KT 9999 OVC012 09/08 Q1016 R18/190095 NOSIG

TAF TAF EVRA
Valid from the 22 at 06:00 until the 23 at 06:00 UTC


220500Z 2206/2306 20010KT 9999 OVC010
TEMPO 2206/2215 3000 -RA BR OVC005
BECMG 2215/2217 26007KT BKN020
BECMG 2221/2223 19005KT
No reported NOTAMs for that airfield.



MET'MAP, your aeronautical weather chart ! - Copyright ORBIFLY December 2007 - Disclaimer

ORBIFLY MET'MAP TEAM :

Programming & Development : Alexandra Zaïnal
Concept & Development : Baudouin d'Aumeries
Co-Development & Prog : Marc-Olivier Méhu
Technical & hardware support : Manuel Goepfert

Contact : metmap@orbifly.com




SOURCES & CREDITS :

   NOAA